sensor_id;sensor_type;location;lat;lon;timestamp;temperature;humidity
44990;DHT22;30723;51.206;3.326;2022-08-01T00:01:15;20.30;99.90
44990;DHT22;30723;51.206;3.326;2022-08-01T00:03:41;20.20;99.90
44990;DHT22;30723;51.206;3.326;2022-08-01T00:06:07;20.20;99.90
44990;DHT22;30723;51.206;3.326;2022-08-01T00:08:34;20.20;99.90
44990;DHT22;30723;51.206;3.326;2022-08-01T00:11:01;20.20;99.90
44990;DHT22;30723;51.206;3.326;2022-08-01T00:13:28;20.20;99.90
44990;DHT22;30723;51.206;3.326;2022-08-01T00:15:55;20.30;99.90
44990;DHT22;30723;51.206;3.326;2022-08-01T00:18:22;20.30;99.90
44990;DHT22;30723;51.206;3.326;2022-08-01T00:20:47;20.20;99.90
44990;DHT22;30723;51.206;3.326;2022-08-01T00:23:13;20.20;99.90
44990;DHT22;30723;51.206;3.326;2022-08-01T00:25:39;20.20;99.90
44990;DHT22;30723;51.206;3.326;2022-08-01T00:28:05;20.20;99.90
44990;DHT22;30723;51.206;3.326;2022-08-01T00:30:34;20.20;99.90
44990;DHT22;30723;51.206;3.326;2022-08-01T00:33:01;20.20;99.90
44990;DHT22;30723;51.206;3.326;2022-08-01T00:35:27;20.20;99.90
44990;DHT22;30723;51.206;3.326;2022-08-01T00:37:53;20.20;99.90
44990;DHT22;30723;51.206;3.326;2022-08-01T00:40:20;20.10;99.90
44990;DHT22;30723;51.206;3.326;2022-08-01T00:42:47;20.20;99.90
44990;DHT22;30723;51.206;3.326;2022-08-01T00:45:14;20.20;99.90
44990;DHT22;30723;51.206;3.326;2022-08-01T00:47:40;20.20;99.90
44990;DHT22;30723;51.206;3.326;2022-08-01T00:50:08;20.20;99.90
44990;DHT22;30723;51.206;3.326;2022-08-01T00:52:34;20.20;99.90
44990;DHT22;30723;51.206;3.326;2022-08-01T00:55:00;20.20;99.90
44990;DHT22;30723;51.206;3.326;2022-08-01T00:57:26;20.20;99.90
44990;DHT22;30723;51.206;3.326;2022-08-01T00:59:53;20.10;99.90
44990;DHT22;30723;51.206;3.326;2022-08-01T01:02:20;20.20;99.90
44990;DHT22;30723;51.206;3.326;2022-08-01T01:04:46;20.20;99.90
44990;DHT22;30723;51.206;3.326;2022-08-01T01:07:32;20.20;99.90
44990;DHT22;30723;51.206;3.326;2022-08-01T01:15:29;20.30;99.90
44990;DHT22;30723;51.206;3.326;2022-08-01T01:18:07;20.20;99.90
44990;DHT22;30723;51.206;3.326;2022-08-01T01:20:43;20.20;99.90
44990;DHT22;30723;51.206;3.326;2022-08-01T01:23:32;20.20;99.90
44990;DHT22;30723;51.206;3.326;2022-08-01T01:31:19;20.30;99.90
44990;DHT22;30723;51.206;3.326;2022-08-01T01:33:49;20.30;99.90
44990;DHT22;30723;51.206;3.326;2022-08-01T01:36:18;20.30;99.90
44990;DHT22;30723;51.206;3.326;2022-08-01T01:38:47;20.40;99.90
44990;DHT22;30723;51.206;3.326;2022-08-01T01:41:16;20.40;99.90
44990;DHT22;30723;51.206;3.326;2022-08-01T01:43:45;20.30;99.90
44990;DHT22;30723;51.206;3.326;2022-08-01T01:46:13;20.40;99.90
44990;DHT22;30723;51.206;3.326;2022-08-01T01:48:43;20.50;99.90
44990;DHT22;30723;51.206;3.326;2022-08-01T01:51:11;20.40;99.90
44990;DHT22;30723;51.206;3.326;2022-08-01T01:53:39;20.30;99.90
44990;DHT22;30723;51.206;3.326;2022-08-01T01:56:06;20.40;99.90
44990;DHT22;30723;51.206;3.326;2022-08-01T01:58:34;20.40;99.90
44990;DHT22;30723;51.206;3.326;2022-08-01T02:01:03;20.40;99.90
44990;DHT22;30723;51.206;3.326;2022-08-01T02:03:32;20.40;99.90
44990;DHT22;30723;51.206;3.326;2022-08-01T02:05:59;20.30;99.90
44990;DHT22;30723;51.206;3.326;2022-08-01T02:08:29;20.40;99.90
44990;DHT22;30723;51.206;3.326;2022-08-01T02:10:58;20.40;99.90
44990;DHT22;30723;51.206;3.326;2022-08-01T02:13:45;20.50;99.90
44990;DHT22;30723;51.206;3.326;2022-08-01T02:16:13;20.40;99.90
44990;DHT22;30723;51.206;3.326;2022-08-01T02:18:40;20.30;99.90
44990;DHT22;30723;51.206;3.326;2022-08-01T02:21:09;20.30;99.90
44990;DHT22;30723;51.206;3.326;2022-08-01T02:23:39;20.30;99.90
44990;DHT22;30723;51.206;3.326;2022-08-01T02:26:10;20.30;99.90
44990;DHT22;30723;51.206;3.326;2022-08-01T02:28:50;20.20;99.90
44990;DHT22;30723;51.206;3.326;2022-08-01T02:31:22;20.20;99.90
44990;DHT22;30723;51.206;3.326;2022-08-01T02:34:15;20.20;99.90
44990;DHT22;30723;51.206;3.326;2022-08-01T02:36:44;20.30;99.90
44990;DHT22;30723;51.206;3.326;2022-08-01T02:39:15;20.30;99.90
44990;DHT22;30723;51.206;3.326;2022-08-01T02:41:45;20.30;99.90
44990;DHT22;30723;51.206;3.326;2022-08-01T02:44:27;20.30;99.90
44990;DHT22;30723;51.206;3.326;2022-08-01T02:46:58;20.30;99.90
44990;DHT22;30723;51.206;3.326;2022-08-01T02:49:32;20.30;99.90
44990;DHT22;30723;51.206;3.326;2022-08-01T02:52:01;20.20;99.90
44990;DHT22;30723;51.206;3.326;2022-08-01T02:54:29;20.10;99.90
44990;DHT22;30723;51.206;3.326;2022-08-01T02:56:56;20.10;99.90
44990;DHT22;30723;51.206;3.326;2022-08-01T02:59:26;20.20;99.90
44990;DHT22;30723;51.206;3.326;2022-08-01T03:01:57;20.20;99.90
44990;DHT22;30723;51.206;3.326;2022-08-01T03:04:26;20.20;99.90
44990;DHT22;30723;51.206;3.326;2022-08-01T03:06:57;20.10;99.90
44990;DHT22;30723;51.206;3.326;2022-08-01T03:09:26;20.10;99.90
44990;DHT22;30723;51.206;3.326;2022-08-01T03:11:59;20.10;99.90
44990;DHT22;30723;51.206;3.326;2022-08-01T03:14:28;20.10;99.90
44990;DHT22;30723;51.206;3.326;2022-08-01T03:16:57;20.10;99.90
44990;DHT22;30723;51.206;3.326;2022-08-01T03:19:25;20.00;99.90
44990;DHT22;30723;51.206;3.326;2022-08-01T03:21:52;20.00;99.90
44990;DHT22;30723;51.206;3.326;2022-08-01T03:24:20;20.00;99.90
44990;DHT22;30723;51.206;3.326;2022-08-01T03:26:48;20.00;99.90
44990;DHT22;30723;51.206;3.326;2022-08-01T03:29:22;19.90;99.90
44990;DHT22;30723;51.206;3.326;2022-08-01T03:31:50;19.90;99.90
44990;DHT22;30723;51.206;3.326;2022-08-01T03:34:17;19.80;99.90
44990;DHT22;30723;51.206;3.326;2022-08-01T03:36:50;19.80;99.90
44990;DHT22;30723;51.206;3.326;2022-08-01T03:39:20;19.90;99.90
44990;DHT22;30723;51.206;3.326;2022-08-01T03:41:54;19.90;99.90
44990;DHT22;30723;51.206;3.326;2022-08-01T03:44:26;19.90;99.90
44990;DHT22;30723;51.206;3.326;2022-08-01T03:47:12;19.90;99.90
44990;DHT22;30723;51.206;3.326;2022-08-01T03:49:42;19.90;99.90
44990;DHT22;30723;51.206;3.326;2022-08-01T03:52:11;19.90;99.90
44990;DHT22;30723;51.206;3.326;2022-08-01T03:54:43;19.90;99.90
44990;DHT22;30723;51.206;3.326;2022-08-01T03:57:12;19.90;99.90
44990;DHT22;30723;51.206;3.326;2022-08-01T03:59:40;19.90;99.90
44990;DHT22;30723;51.206;3.326;2022-08-01T04:02:07;19.90;99.90
44990;DHT22;30723;51.206;3.326;2022-08-01T04:04:33;19.80;99.90
44990;DHT22;30723;51.206;3.326;2022-08-01T04:07:00;19.70;99.90
44990;DHT22;30723;51.206;3.326;2022-08-01T04:09:31;19.80;99.90
44990;DHT22;30723;51.206;3.326;2022-08-01T04:11:59;19.70;99.90
44990;DHT22;30723;51.206;3.326;2022-08-01T04:14:27;19.70;99.90
44990;DHT22;30723;51.206;3.326;2022-08-01T04:16:54;19.60;99.90
44990;DHT22;30723;51.206;3.326;2022-08-01T04:19:21;19.60;99.90
44990;DHT22;30723;51.206;3.326;2022-08-01T04:21:48;19.50;99.90
44990;DHT22;30723;51.206;3.326;2022-08-01T04:24:19;19.50;99.90
44990;DHT22;30723;51.206;3.326;2022-08-01T04:26:47;19.50;99.90
44990;DHT22;30723;51.206;3.326;2022-08-01T04:29:15;19.50;99.90
44990;DHT22;30723;51.206;3.326;2022-08-01T04:31:45;19.50;99.90
44990;DHT22;30723;51.206;3.326;2022-08-01T04:34:17;19.40;99.90
44990;DHT22;30723;51.206;3.326;2022-08-01T04:36:44;19.20;99.90
44990;DHT22;30723;51.206;3.326;2022-08-01T04:39:12;19.10;99.90
44990;DHT22;30723;51.206;3.326;2022-08-01T04:41:40;19.10;99.90
44990;DHT22;30723;51.206;3.326;2022-08-01T04:44:06;19.00;99.90
44990;DHT22;30723;51.206;3.326;2022-08-01T04:46:34;19.00;99.90
44990;DHT22;30723;51.206;3.326;2022-08-01T04:49:09;19.00;99.90
44990;DHT22;30723;51.206;3.326;2022-08-01T04:51:49;19.00;99.90
44990;DHT22;30723;51.206;3.326;2022-08-01T04:54:16;19.00;99.90
44990;DHT22;30723;51.206;3.326;2022-08-01T04:56:43;19.10;99.90
44990;DHT22;30723;51.206;3.326;2022-08-01T04:59:09;19.10;99.90
44990;DHT22;30723;51.206;3.326;2022-08-01T05:01:55;19.10;99.90
44990;DHT22;30723;51.206;3.326;2022-08-01T05:04:21;19.10;99.90
44990;DHT22;30723;51.206;3.326;2022-08-01T05:06:46;19.10;99.90
44990;DHT22;30723;51.206;3.326;2022-08-01T05:09:13;19.10;99.90
44990;DHT22;30723;51.206;3.326;2022-08-01T05:11:40;19.30;99.90
44990;DHT22;30723;51.206;3.326;2022-08-01T05:14:07;19.40;99.90
44990;DHT22;30723;51.206;3.326;2022-08-01T05:16:33;19.50;99.90
44990;DHT22;30723;51.206;3.326;2022-08-01T05:19:00;19.60;99.90
44990;DHT22;30723;51.206;3.326;2022-08-01T05:21:29;19.80;99.90
44990;DHT22;30723;51.206;3.326;2022-08-01T05:23:55;20.00;99.90
44990;DHT22;30723;51.206;3.326;2022-08-01T05:26:23;20.20;99.90
44990;DHT22;30723;51.206;3.326;2022-08-01T05:28:50;20.30;99.90
44990;DHT22;30723;51.206;3.326;2022-08-01T05:31:15;20.40;99.90
44990;DHT22;30723;51.206;3.326;2022-08-01T05:33:43;20.40;99.90
44990;DHT22;30723;51.206;3.326;2022-08-01T05:36:09;20.50;99.90
44990;DHT22;30723;51.206;3.326;2022-08-01T05:38:35;20.60;99.90
44990;DHT22;30723;51.206;3.326;2022-08-01T05:41:01;20.70;99.90
44990;DHT22;30723;51.206;3.326;2022-08-01T05:43:27;20.70;99.90
44990;DHT22;30723;51.206;3.326;2022-08-01T05:45:53;20.90;99.90
44990;DHT22;30723;51.206;3.326;2022-08-01T05:48:20;21.30;99.90
44990;DHT22;30723;51.206;3.326;2022-08-01T05:50:46;21.80;99.90
44990;DHT22;30723;51.206;3.326;2022-08-01T05:53:14;22.30;99.90
44990;DHT22;30723;51.206;3.326;2022-08-01T05:55:41;22.70;99.90
44990;DHT22;30723;51.206;3.326;2022-08-01T05:58:08;22.80;99.90
44990;DHT22;30723;51.206;3.326;2022-08-01T06:00:35;23.00;99.90
44990;DHT22;30723;51.206;3.326;2022-08-01T06:03:01;22.80;99.90
44990;DHT22;30723;51.206;3.326;2022-08-01T06:05:27;22.60;99.90
44990;DHT22;30723;51.206;3.326;2022-08-01T06:07:53;22.50;99.90
44990;DHT22;30723;51.206;3.326;2022-08-01T06:10:20;22.30;99.90
44990;DHT22;30723;51.206;3.326;2022-08-01T06:12:47;22.20;99.90
44990;DHT22;30723;51.206;3.326;2022-08-01T06:15:14;22.10;99.90
44990;DHT22;30723;51.206;3.326;2022-08-01T06:17:41;21.90;99.90
44990;DHT22;30723;51.206;3.326;2022-08-01T06:20:10;21.80;99.90
44990;DHT22;30723;51.206;3.326;2022-08-01T06:22:37;22.40;99.90
44990;DHT22;30723;51.206;3.326;2022-08-01T06:25:05;22.80;99.90
44990;DHT22;30723;51.206;3.326;2022-08-01T06:27:34;23.30;99.90
44990;DHT22;30723;51.206;3.326;2022-08-01T06:30:00;24.20;99.90
44990;DHT22;30723;51.206;3.326;2022-08-01T06:32:27;25.20;99.90
44990;DHT22;30723;51.206;3.326;2022-08-01T06:34:54;25.60;99.90
44990;DHT22;30723;51.206;3.326;2022-08-01T06:37:19;25.80;99.90
44990;DHT22;30723;51.206;3.326;2022-08-01T06:39:46;25.70;99.90
44990;DHT22;30723;51.206;3.326;2022-08-01T06:42:13;25.60;99.90
44990;DHT22;30723;51.206;3.326;2022-08-01T06:44:41;25.40;99.90
44990;DHT22;30723;51.206;3.326;2022-08-01T06:47:07;25.00;99.90
44990;DHT22;30723;51.206;3.326;2022-08-01T06:49:33;24.60;99.90
44990;DHT22;30723;51.206;3.326;2022-08-01T06:51:59;24.00;99.90
44990;DHT22;30723;51.206;3.326;2022-08-01T06:54:26;23.70;99.90
44990;DHT22;30723;51.206;3.326;2022-08-01T06:56:53;23.50;99.90
44990;DHT22;30723;51.206;3.326;2022-08-01T06:59:20;23.40;99.90
44990;DHT22;30723;51.206;3.326;2022-08-01T07:01:46;23.60;99.90
44990;DHT22;30723;51.206;3.326;2022-08-01T07:04:13;24.20;99.90
44990;DHT22;30723;51.206;3.326;2022-08-01T07:06:38;24.40;99.90
44990;DHT22;30723;51.206;3.326;2022-08-01T07:09:05;25.20;99.90
44990;DHT22;30723;51.206;3.326;2022-08-01T07:11:31;25.90;99.90
44990;DHT22;30723;51.206;3.326;2022-08-01T07:13:58;25.90;99.90
44990;DHT22;30723;51.206;3.326;2022-08-01T07:16:25;25.70;99.90
44990;DHT22;30723;51.206;3.326;2022-08-01T07:18:52;25.40;99.90
44990;DHT22;30723;51.206;3.326;2022-08-01T07:21:18;25.10;99.90
44990;DHT22;30723;51.206;3.326;2022-08-01T07:23:44;25.20;99.90
44990;DHT22;30723;51.206;3.326;2022-08-01T07:26:11;25.20;99.90
44990;DHT22;30723;51.206;3.326;2022-08-01T07:28:38;26.40;99.90
44990;DHT22;30723;51.206;3.326;2022-08-01T07:31:05;26.60;99.90
44990;DHT22;30723;51.206;3.326;2022-08-01T07:33:31;27.10;99.90
44990;DHT22;30723;51.206;3.326;2022-08-01T07:35:58;27.20;99.90
44990;DHT22;30723;51.206;3.326;2022-08-01T07:38:24;27.10;99.90
44990;DHT22;30723;51.206;3.326;2022-08-01T07:40:50;26.80;99.90
44990;DHT22;30723;51.206;3.326;2022-08-01T07:43:17;27.20;99.90
44990;DHT22;30723;51.206;3.326;2022-08-01T07:45:44;27.50;99.90
44990;DHT22;30723;51.206;3.326;2022-08-01T07:48:10;28.20;99.90
44990;DHT22;30723;51.206;3.326;2022-08-01T07:50:36;28.50;99.90
44990;DHT22;30723;51.206;3.326;2022-08-01T07:53:03;28.80;99.90
44990;DHT22;30723;51.206;3.326;2022-08-01T07:55:29;29.80;99.40
44990;DHT22;30723;51.206;3.326;2022-08-01T07:57:57;30.60;97.90
44990;DHT22;30723;51.206;3.326;2022-08-01T08:00:24;31.90;95.60
44990;DHT22;30723;51.206;3.326;2022-08-01T08:02:51;32.40;93.40
44990;DHT22;30723;51.206;3.326;2022-08-01T08:05:18;31.00;92.80
44990;DHT22;30723;51.206;3.326;2022-08-01T08:07:46;29.50;94.70
44990;DHT22;30723;51.206;3.326;2022-08-01T08:10:12;29.10;95.70
44990;DHT22;30723;51.206;3.326;2022-08-01T08:12:39;28.80;95.80
44990;DHT22;30723;51.206;3.326;2022-08-01T08:15:07;28.60;96.70
44990;DHT22;30723;51.206;3.326;2022-08-01T08:17:33;28.70;96.40
44990;DHT22;30723;51.206;3.326;2022-08-01T08:20:00;28.80;95.90
44990;DHT22;30723;51.206;3.326;2022-08-01T08:22:27;29.10;96.20
44990;DHT22;30723;51.206;3.326;2022-08-01T08:24:54;29.00;96.00
44990;DHT22;30723;51.206;3.326;2022-08-01T08:27:21;29.20;95.70
44990;DHT22;30723;51.206;3.326;2022-08-01T08:29:47;29.50;95.20
44990;DHT22;30723;51.206;3.326;2022-08-01T08:32:14;30.40;94.30
44990;DHT22;30723;51.206;3.326;2022-08-01T08:34:41;31.10;92.70
44990;DHT22;30723;51.206;3.326;2022-08-01T08:37:07;31.50;90.80
44990;DHT22;30723;51.206;3.326;2022-08-01T08:39:34;31.10;92.00
44990;DHT22;30723;51.206;3.326;2022-08-01T08:42:01;31.50;91.80
44990;DHT22;30723;51.206;3.326;2022-08-01T08:44:27;31.60;91.10
44990;DHT22;30723;51.206;3.326;2022-08-01T08:46:54;31.10;91.40
44990;DHT22;30723;51.206;3.326;2022-08-01T08:49:27;31.60;91.30
44990;DHT22;30723;51.206;3.326;2022-08-01T08:51:57;32.90;90.20
44990;DHT22;30723;51.206;3.326;2022-08-01T08:54:25;33.60;87.90
44990;DHT22;30723;51.206;3.326;2022-08-01T08:56:54;33.70;84.50
44990;DHT22;30723;51.206;3.326;2022-08-01T08:59:21;34.40;83.70
44990;DHT22;30723;51.206;3.326;2022-08-01T09:01:50;34.50;81.60
44990;DHT22;30723;51.206;3.326;2022-08-01T09:04:16;33.70;81.20
44990;DHT22;30723;51.206;3.326;2022-08-01T09:06:43;32.70;84.50
44990;DHT22;30723;51.206;3.326;2022-08-01T09:09:09;32.50;84.70
44990;DHT22;30723;51.206;3.326;2022-08-01T09:11:36;32.70;83.40
44990;DHT22;30723;51.206;3.326;2022-08-01T09:14:17;32.50;83.70
44990;DHT22;30723;51.206;3.326;2022-08-01T09:17:02;32.10;84.30
44990;DHT22;30723;51.206;3.326;2022-08-01T09:19:37;32.00;85.00
44990;DHT22;30723;51.206;3.326;2022-08-01T09:22:07;32.50;83.50
44990;DHT22;30723;51.206;3.326;2022-08-01T09:24:35;32.30;83.40
44990;DHT22;30723;51.206;3.326;2022-08-01T09:27:19;32.20;84.80
44990;DHT22;30723;51.206;3.326;2022-08-01T09:29:45;32.00;84.50
44990;DHT22;30723;51.206;3.326;2022-08-01T09:32:12;31.10;86.70
44990;DHT22;30723;51.206;3.326;2022-08-01T09:34:37;31.00;87.10
44990;DHT22;30723;51.206;3.326;2022-08-01T09:37:03;30.70;88.00
44990;DHT22;30723;51.206;3.326;2022-08-01T09:39:36;30.40;89.20
44990;DHT22;30723;51.206;3.326;2022-08-01T09:42:26;30.00;89.60
44990;DHT22;30723;51.206;3.326;2022-08-01T09:44:53;29.80;90.20
44990;DHT22;30723;51.206;3.326;2022-08-01T09:47:20;29.70;90.30
44990;DHT22;30723;51.206;3.326;2022-08-01T09:49:55;30.30;90.80
44990;DHT22;30723;51.206;3.326;2022-08-01T09:52:27;30.60;88.80
44990;DHT22;30723;51.206;3.326;2022-08-01T09:54:58;30.60;86.60
44990;DHT22;30723;51.206;3.326;2022-08-01T09:57:26;30.80;89.40
44990;DHT22;30723;51.206;3.326;2022-08-01T09:59:58;30.90;88.50
44990;DHT22;30723;51.206;3.326;2022-08-01T10:02:35;31.30;88.30
44990;DHT22;30723;51.206;3.326;2022-08-01T10:05:09;31.40;87.70
44990;DHT22;30723;51.206;3.326;2022-08-01T10:07:54;31.80;86.10
44990;DHT22;30723;51.206;3.326;2022-08-01T10:10:21;31.70;85.60
44990;DHT22;30723;51.206;3.326;2022-08-01T10:12:48;32.10;85.80
44990;DHT22;30723;51.206;3.326;2022-08-01T10:15:16;32.00;84.70
44990;DHT22;30723;51.206;3.326;2022-08-01T10:18:04;32.40;83.40
44990;DHT22;30723;51.206;3.326;2022-08-01T10:20:32;33.40;82.40
44990;DHT22;30723;51.206;3.326;2022-08-01T10:23:02;34.00;79.40
44990;DHT22;30723;51.206;3.326;2022-08-01T10:25:35;34.90;77.50
44990;DHT22;30723;51.206;3.326;2022-08-01T10:28:14;34.90;78.90
44990;DHT22;30723;51.206;3.326;2022-08-01T10:30:42;35.50;75.60
44990;DHT22;30723;51.206;3.326;2022-08-01T10:33:11;33.80;75.50
44990;DHT22;30723;51.206;3.326;2022-08-01T10:35:57;33.90;77.60
44990;DHT22;30723;51.206;3.326;2022-08-01T10:38:24;34.80;75.90
44990;DHT22;30723;51.206;3.326;2022-08-01T10:40:54;35.20;74.90
44990;DHT22;30723;51.206;3.326;2022-08-01T10:43:24;35.10;73.30
44990;DHT22;30723;51.206;3.326;2022-08-01T10:45:50;35.30;72.30
44990;DHT22;30723;51.206;3.326;2022-08-01T10:51:05;35.90;71.60
44990;DHT22;30723;51.206;3.326;2022-08-01T10:53:32;37.10;71.40
44990;DHT22;30723;51.206;3.326;2022-08-01T10:56:03;38.00;68.10
44990;DHT22;30723;51.206;3.326;2022-08-01T10:58:37;39.00;65.40
44990;DHT22;30723;51.206;3.326;2022-08-01T11:01:24;38.10;64.90
44990;DHT22;30723;51.206;3.326;2022-08-01T11:12:12;36.40;66.20
44990;DHT22;30723;51.206;3.326;2022-08-01T11:18:02;35.30;65.50
44990;DHT22;30723;51.206;3.326;2022-08-01T11:21:06;34.50;68.60
44990;DHT22;30723;51.206;3.326;2022-08-01T11:23:52;34.70;69.60
44990;DHT22;30723;51.206;3.326;2022-08-01T11:26:38;34.50;69.60
44990;DHT22;30723;51.206;3.326;2022-08-01T11:29:30;34.30;71.20
44990;DHT22;30723;51.206;3.326;2022-08-01T11:32:26;33.30;72.60
44990;DHT22;30723;51.206;3.326;2022-08-01T11:35:12;32.70;73.80
44990;DHT22;30723;51.206;3.326;2022-08-01T11:37:38;32.00;76.20
44990;DHT22;30723;51.206;3.326;2022-08-01T11:40:23;32.00;77.00
44990;DHT22;30723;51.206;3.326;2022-08-01T11:43:17;32.00;77.70
44990;DHT22;30723;51.206;3.326;2022-08-01T11:45:51;31.90;77.10
44990;DHT22;30723;51.206;3.326;2022-08-01T11:48:37;31.30;78.90
44990;DHT22;30723;51.206;3.326;2022-08-01T11:51:24;31.50;79.10
44990;DHT22;30723;51.206;3.326;2022-08-01T11:54:10;31.50;79.70
44990;DHT22;30723;51.206;3.326;2022-08-01T11:57:00;31.70;79.20
44990;DHT22;30723;51.206;3.326;2022-08-01T11:59:47;31.10;78.70
44990;DHT22;30723;51.206;3.326;2022-08-01T12:02:34;31.00;80.10
44990;DHT22;30723;51.206;3.326;2022-08-01T12:05:29;30.90;79.60
44990;DHT22;30723;51.206;3.326;2022-08-01T12:07:57;32.00;78.80
44990;DHT22;30723;51.206;3.326;2022-08-01T12:10:48;32.40;77.40
44990;DHT22;30723;51.206;3.326;2022-08-01T12:13:40;33.10;75.40
44990;DHT22;30723;51.206;3.326;2022-08-01T12:16:10;34.00;72.10
44990;DHT22;30723;51.206;3.326;2022-08-01T12:18:59;35.10;71.60
44990;DHT22;30723;51.206;3.326;2022-08-01T12:21:25;37.20;66.40
44990;DHT22;30723;51.206;3.326;2022-08-01T12:24:02;39.00;62.90
44990;DHT22;30723;51.206;3.326;2022-08-01T12:26:43;40.30;60.40
44990;DHT22;30723;51.206;3.326;2022-08-01T12:29:08;40.90;57.60
44990;DHT22;30723;51.206;3.326;2022-08-01T12:31:34;41.70;56.30
44990;DHT22;30723;51.206;3.326;2022-08-01T12:34:27;41.70;55.00
44990;DHT22;30723;51.206;3.326;2022-08-01T12:37:00;41.00;55.50
44990;DHT22;30723;51.206;3.326;2022-08-01T12:39:32;42.30;54.70
44990;DHT22;30723;51.206;3.326;2022-08-01T12:41:58;43.20;52.60
44990;DHT22;30723;51.206;3.326;2022-08-01T12:44:26;44.00;50.10
44990;DHT22;30723;51.206;3.326;2022-08-01T12:46:53;44.30;48.60
44990;DHT22;30723;51.206;3.326;2022-08-01T12:49:19;43.80;48.70
44990;DHT22;30723;51.206;3.326;2022-08-01T12:51:46;44.50;48.60
44990;DHT22;30723;51.206;3.326;2022-08-01T12:54:13;44.40;46.60
44990;DHT22;30723;51.206;3.326;2022-08-01T12:56:39;43.10;47.30
44990;DHT22;30723;51.206;3.326;2022-08-01T12:59:39;43.80;45.90
44990;DHT22;30723;51.206;3.326;2022-08-01T13:02:08;43.80;46.50
44990;DHT22;30723;51.206;3.326;2022-08-01T13:04:49;41.40;47.80
44990;DHT22;30723;51.206;3.326;2022-08-01T13:07:19;40.10;50.00
44990;DHT22;30723;51.206;3.326;2022-08-01T13:09:52;39.40;50.50
44990;DHT22;30723;51.206;3.326;2022-08-01T13:12:18;38.80;51.00
44990;DHT22;30723;51.206;3.326;2022-08-01T13:14:45;38.40;51.80
44990;DHT22;30723;51.206;3.326;2022-08-01T13:17:12;38.70;51.10
44990;DHT22;30723;51.206;3.326;2022-08-01T13:19:55;39.30;50.50
44990;DHT22;30723;51.206;3.326;2022-08-01T13:22:36;40.40;48.80
44990;DHT22;30723;51.206;3.326;2022-08-01T13:25:16;41.70;45.70
44990;DHT22;30723;51.206;3.326;2022-08-01T13:27:43;41.20;46.80
44990;DHT22;30723;51.206;3.326;2022-08-01T13:30:18;40.80;46.90
44990;DHT22;30723;51.206;3.326;2022-08-01T13:33:05;39.30;48.40
44990;DHT22;30723;51.206;3.326;2022-08-01T13:35:31;37.40;47.20
44990;DHT22;30723;51.206;3.326;2022-08-01T13:37:57;35.80;49.80
44990;DHT22;30723;51.206;3.326;2022-08-01T13:40:26;36.00;52.30
44990;DHT22;30723;51.206;3.326;2022-08-01T13:42:54;36.80;51.90
44990;DHT22;30723;51.206;3.326;2022-08-01T13:45:23;37.20;51.40
44990;DHT22;30723;51.206;3.326;2022-08-01T13:47:49;37.40;49.50
44990;DHT22;30723;51.206;3.326;2022-08-01T13:50:15;36.30;50.90
44990;DHT22;30723;51.206;3.326;2022-08-01T13:52:42;35.40;53.10
44990;DHT22;30723;51.206;3.326;2022-08-01T13:55:09;35.10;54.00
44990;DHT22;30723;51.206;3.326;2022-08-01T13:57:35;35.20;54.00
44990;DHT22;30723;51.206;3.326;2022-08-01T14:00:04;36.20;52.50
44990;DHT22;30723;51.206;3.326;2022-08-01T14:02:32;36.60;52.60
44990;DHT22;30723;51.206;3.326;2022-08-01T14:04:59;37.70;51.60
44990;DHT22;30723;51.206;3.326;2022-08-01T14:07:26;39.50;50.10
44990;DHT22;30723;51.206;3.326;2022-08-01T14:09:52;40.80;48.10
44990;DHT22;30723;51.206;3.326;2022-08-01T14:12:19;41.00;47.00
44990;DHT22;30723;51.206;3.326;2022-08-01T14:14:46;40.80;48.30
44990;DHT22;30723;51.206;3.326;2022-08-01T14:17:12;41.30;47.20
44990;DHT22;30723;51.206;3.326;2022-08-01T14:19:38;41.70;47.20
44990;DHT22;30723;51.206;3.326;2022-08-01T14:22:05;41.30;48.30
44990;DHT22;30723;51.206;3.326;2022-08-01T14:24:31;40.30;48.60
44990;DHT22;30723;51.206;3.326;2022-08-01T14:26:58;39.70;50.10
44990;DHT22;30723;51.206;3.326;2022-08-01T14:29:24;38.80;49.40
44990;DHT22;30723;51.206;3.326;2022-08-01T14:31:52;37.30;51.60
44990;DHT22;30723;51.206;3.326;2022-08-01T14:34:18;36.80;51.20
44990;DHT22;30723;51.206;3.326;2022-08-01T14:36:44;36.80;51.70
44990;DHT22;30723;51.206;3.326;2022-08-01T14:39:10;36.90;52.60
44990;DHT22;30723;51.206;3.326;2022-08-01T14:41:37;36.70;51.30
44990;DHT22;30723;51.206;3.326;2022-08-01T14:44:04;36.10;52.50
44990;DHT22;30723;51.206;3.326;2022-08-01T14:46:30;36.30;52.80
44990;DHT22;30723;51.206;3.326;2022-08-01T14:48:57;36.60;51.10
44990;DHT22;30723;51.206;3.326;2022-08-01T14:51:24;37.10;49.80
44990;DHT22;30723;51.206;3.326;2022-08-01T14:53:50;38.10;49.60
44990;DHT22;30723;51.206;3.326;2022-08-01T14:56:17;39.50;48.10
44990;DHT22;30723;51.206;3.326;2022-08-01T14:58:44;39.10;46.00
44990;DHT22;30723;51.206;3.326;2022-08-01T15:01:10;38.90;46.50
44990;DHT22;30723;51.206;3.326;2022-08-01T15:03:37;39.70;44.60
44990;DHT22;30723;51.206;3.326;2022-08-01T15:06:03;38.80;44.80
44990;DHT22;30723;51.206;3.326;2022-08-01T15:08:29;39.10;44.70
44990;DHT22;30723;51.206;3.326;2022-08-01T15:10:56;40.40;43.50
44990;DHT22;30723;51.206;3.326;2022-08-01T15:13:23;39.60;44.10
44990;DHT22;30723;51.206;3.326;2022-08-01T15:15:49;38.40;45.70
44990;DHT22;30723;51.206;3.326;2022-08-01T15:18:16;39.50;45.20
44990;DHT22;30723;51.206;3.326;2022-08-01T15:20:42;39.80;43.70
44990;DHT22;30723;51.206;3.326;2022-08-01T15:23:10;40.50;43.40
44990;DHT22;30723;51.206;3.326;2022-08-01T15:25:36;40.50;42.10
44990;DHT22;30723;51.206;3.326;2022-08-01T15:28:02;39.80;42.00
44990;DHT22;30723;51.206;3.326;2022-08-01T15:30:28;39.60;44.30
44990;DHT22;30723;51.206;3.326;2022-08-01T15:32:55;39.70;42.00
44990;DHT22;30723;51.206;3.326;2022-08-01T15:35:22;39.70;42.20
44990;DHT22;30723;51.206;3.326;2022-08-01T15:37:49;38.90;43.30
44990;DHT22;30723;51.206;3.326;2022-08-01T15:40:15;38.50;45.00
44990;DHT22;30723;51.206;3.326;2022-08-01T15:42:42;38.40;45.80
44990;DHT22;30723;51.206;3.326;2022-08-01T15:45:09;38.20;47.80
44990;DHT22;30723;51.206;3.326;2022-08-01T15:47:37;37.70;47.40
44990;DHT22;30723;51.206;3.326;2022-08-01T15:50:03;37.80;48.20
44990;DHT22;30723;51.206;3.326;2022-08-01T15:52:31;37.40;48.60
44990;DHT22;30723;51.206;3.326;2022-08-01T15:54:57;37.10;48.90
44990;DHT22;30723;51.206;3.326;2022-08-01T15:57:25;36.50;48.90
44990;DHT22;30723;51.206;3.326;2022-08-01T15:59:51;36.10;49.10
44990;DHT22;30723;51.206;3.326;2022-08-01T16:02:18;35.30;51.20
44990;DHT22;30723;51.206;3.326;2022-08-01T16:04:45;35.10;50.70
44990;DHT22;30723;51.206;3.326;2022-08-01T16:07:12;34.50;51.60
44990;DHT22;30723;51.206;3.326;2022-08-01T16:09:39;34.10;50.80
44990;DHT22;30723;51.206;3.326;2022-08-01T16:12:06;33.70;52.00